createdAt,value
2023-05-10T00:01:59.685Z,12.40
2023-05-10T00:04:28.449Z,13.20
2023-05-10T00:06:55.811Z,12.90
2023-05-10T00:09:22.429Z,14.30
2023-05-10T00:11:48.965Z,13.60
2023-05-10T00:14:15.507Z,11.20
2023-05-10T00:16:42.114Z,11.70
2023-05-10T00:19:08.868Z,12.20
2023-05-10T00:21:35.431Z,14.20
2023-05-10T00:24:01.951Z,11.20
2023-05-10T00:26:28.493Z,10.70
2023-05-10T00:28:55.406Z,13.00
2023-05-10T00:31:21.962Z,10.60
2023-05-10T00:33:48.473Z,9.60
2023-05-10T00:36:15.059Z,11.30
2023-05-10T00:38:41.613Z,13.40
2023-05-10T00:41:08.350Z,15.30
2023-05-10T00:43:35.672Z,11.70
2023-05-10T00:46:05.265Z,12.80
2023-05-10T00:48:32.896Z,11.80
2023-05-10T00:50:59.570Z,11.60
2023-05-10T00:53:26.537Z,10.60
2023-05-10T00:55:53.417Z,8.20
2023-05-10T00:58:20.059Z,11.90
2023-05-10T01:00:47.339Z,11.00
2023-05-10T01:03:14.085Z,14.00
2023-05-10T01:05:41.518Z,11.70
2023-05-10T01:08:09.615Z,9.90
2023-05-10T01:10:36.443Z,10.40
2023-05-10T01:13:04.129Z,11.30
2023-05-10T01:15:32.183Z,11.50
2023-05-10T01:17:59.664Z,9.50
2023-05-10T01:20:31.715Z,11.30
2023-05-10T01:23:23.115Z,9.40
2023-05-10T01:26:14.932Z,11.50
2023-05-10T01:29:04.747Z,12.20
2023-05-10T01:34:21.872Z,16.20
2023-05-10T01:36:56.305Z,12.40
2023-05-10T01:39:47.995Z,11.20
2023-05-10T01:42:32.774Z,11.20
2023-05-10T01:45:01.910Z,11.70
2023-05-10T01:47:33.877Z,11.10
2023-05-10T01:50:03.565Z,15.40
2023-05-10T01:52:42.798Z,17.70
2023-05-10T01:55:14.320Z,12.50
2023-05-10T01:57:43.591Z,16.10
2023-05-10T02:00:12.384Z,15.00
2023-05-10T02:02:46.151Z,9.60
2023-05-10T02:05:16.032Z,10.70
2023-05-10T02:10:11.550Z,10.40
2023-05-10T02:12:42.581Z,9.50
2023-05-10T02:15:11.438Z,8.40
2023-05-10T02:17:39.850Z,11.70
2023-05-10T02:20:08.680Z,8.00
2023-05-10T02:22:36.783Z,8.40
2023-05-10T02:25:04.556Z,8.60
2023-05-10T02:27:31.705Z,9.50
2023-05-10T02:29:59.102Z,10.50
2023-05-10T02:32:28.656Z,12.70
2023-05-10T02:34:58.164Z,12.80
2023-05-10T02:37:26.425Z,14.00
2023-05-10T02:39:56.056Z,10.30
2023-05-10T02:42:28.818Z,12.40
2023-05-10T02:45:02.496Z,10.70
2023-05-10T02:47:30.768Z,10.60
2023-05-10T02:49:57.379Z,10.50
2023-05-10T02:52:28.341Z,9.40
2023-05-10T02:55:04.117Z,12.90
2023-05-10T02:57:34.904Z,8.80
2023-05-10T03:00:04.327Z,13.50
2023-05-10T03:02:32.187Z,11.40
2023-05-10T03:04:59.537Z,13.00
2023-05-10T03:07:26.660Z,11.50
2023-05-10T03:09:53.508Z,11.80
2023-05-10T03:12:53.587Z,10.40
2023-05-10T03:15:24.188Z,10.20
2023-05-10T03:18:04.776Z,11.60
2023-05-10T03:20:44.699Z,14.60
2023-05-10T03:23:23.617Z,13.10
2023-05-10T03:25:51.827Z,12.30
2023-05-10T03:28:20.255Z,10.20
2023-05-10T03:30:47.570Z,10.40
2023-05-10T03:33:15.130Z,11.90
2023-05-10T03:35:45.088Z,12.50
2023-05-10T03:38:11.614Z,13.50
2023-05-10T03:40:38.447Z,13.10
2023-05-10T03:43:05.163Z,16.20
2023-05-10T03:45:31.974Z,9.10
2023-05-10T03:48:04.849Z,13.20
2023-05-10T03:50:34.089Z,13.20
2023-05-10T03:53:00.748Z,14.00
2023-05-10T03:55:27.908Z,13.70
2023-05-10T03:57:54.981Z,18.10
2023-05-10T04:00:22.220Z,12.30
2023-05-10T04:02:50.269Z,16.60
2023-05-10T04:05:19.243Z,10.20
2023-05-10T04:07:45.869Z,9.00
2023-05-10T04:10:12.819Z,12.20
2023-05-10T04:12:39.377Z,12.00
2023-05-10T04:15:07.572Z,12.80
2023-05-10T04:17:34.239Z,7.10
2023-05-10T04:20:00.887Z,11.50
2023-05-10T04:22:28.742Z,10.60
2023-05-10T04:24:55.314Z,7.90
2023-05-10T04:27:21.974Z,11.20
2023-05-10T04:29:49.193Z,11.40
2023-05-10T04:32:17.347Z,8.40
2023-05-10T04:34:44.538Z,10.80
2023-05-10T04:37:11.247Z,8.80
2023-05-10T04:39:38.839Z,11.70
2023-05-10T04:42:06.791Z,8.40
2023-05-10T04:44:33.808Z,13.00
2023-05-10T04:47:01.212Z,7.20
2023-05-10T04:49:27.796Z,7.80
2023-05-10T04:51:54.336Z,12.00
2023-05-10T04:54:20.979Z,11.90
2023-05-10T04:56:47.538Z,12.70
2023-05-10T04:59:14.255Z,12.10
2023-05-10T05:01:40.822Z,9.90
2023-05-10T05:04:08.015Z,12.50
2023-05-10T05:06:34.689Z,9.80
2023-05-10T05:09:01.225Z,9.10
2023-05-10T05:11:27.973Z,12.10
2023-05-10T05:13:54.619Z,13.50
2023-05-10T05:16:21.162Z,9.40
2023-05-10T05:18:47.886Z,9.90
2023-05-10T05:21:19.415Z,12.60
2023-05-10T05:23:46.523Z,11.90
2023-05-10T05:26:13.073Z,14.10
2023-05-10T05:28:39.703Z,12.70
2023-05-10T05:31:08.756Z,14.30
2023-05-10T05:33:35.853Z,8.80
2023-05-10T05:36:03.985Z,11.70
2023-05-10T05:38:30.609Z,10.80
2023-05-10T05:40:57.166Z,12.50
2023-05-10T05:43:23.798Z,16.50
2023-05-10T05:45:50.683Z,18.10
2023-05-10T05:48:17.241Z,16.80
2023-05-10T05:50:43.825Z,12.70
2023-05-10T05:53:10.846Z,12.10
2023-05-10T05:55:37.551Z,14.00
2023-05-10T05:58:04.249Z,15.60
2023-05-10T06:00:30.832Z,16.80
2023-05-10T06:02:58.192Z,15.10
2023-05-10T06:05:24.872Z,13.00
2023-05-10T06:07:51.426Z,14.60
2023-05-10T06:10:18.006Z,13.00
2023-05-10T06:12:44.622Z,13.10
2023-05-10T06:15:11.509Z,8.70
2023-05-10T06:17:38.026Z,13.30
2023-05-10T06:20:05.005Z,12.10
2023-05-10T06:22:31.522Z,11.80
2023-05-10T06:24:59.642Z,9.20
2023-05-10T06:27:26.262Z,7.40
2023-05-10T06:30:02.161Z,9.80
2023-05-10T06:32:32.407Z,9.30
2023-05-10T06:34:59.134Z,11.90
2023-05-10T06:37:25.776Z,9.40
2023-05-10T06:39:52.527Z,10.50
2023-05-10T06:42:19.144Z,11.60
2023-05-10T06:44:46.468Z,6.30
2023-05-10T06:47:13.352Z,4.10
2023-05-10T06:49:39.941Z,5.10
2023-05-10T06:52:06.461Z,6.10
2023-05-10T06:54:33.067Z,8.20
2023-05-10T06:57:01.209Z,4.90
2023-05-10T06:59:28.680Z,8.00
2023-05-10T07:01:55.864Z,5.20
2023-05-10T07:04:22.647Z,4.20
2023-05-10T07:06:50.781Z,4.10
2023-05-10T07:09:17.466Z,6.90
2023-05-10T07:11:44.096Z,4.70
2023-05-10T07:14:10.952Z,9.40
2023-05-10T07:16:37.851Z,3.40
2023-05-10T07:19:06.317Z,3.90
2023-05-10T07:21:33.262Z,5.60
2023-05-10T07:24:01.288Z,7.40
2023-05-10T07:26:27.898Z,6.20
2023-05-10T07:28:54.451Z,6.40
2023-05-10T07:31:21.108Z,4.90
2023-05-10T07:33:47.632Z,8.20
2023-05-10T07:36:14.205Z,4.80
2023-05-10T07:38:41.402Z,4.00
2023-05-10T07:41:08.205Z,6.40
2023-05-10T07:43:34.746Z,3.30
2023-05-10T07:46:02.432Z,3.40
2023-05-10T07:49:49.248Z,3.00
2023-05-10T07:52:16.423Z,5.40
2023-05-10T07:54:42.995Z,3.90
2023-05-10T07:57:09.869Z,5.10
2023-05-10T07:59:36.530Z,2.90
2023-05-10T08:02:03.205Z,7.10
2023-05-10T08:04:29.883Z,5.10
2023-05-10T08:06:56.634Z,3.30
2023-05-10T08:09:25.139Z,3.90
2023-05-10T08:11:52.070Z,5.90
2023-05-10T08:14:19.165Z,10.90
2023-05-10T08:16:45.787Z,5.00
2023-05-10T08:19:12.482Z,3.50
2023-05-10T08:21:39.469Z,6.10
2023-05-10T08:24:06.693Z,2.80
2023-05-10T08:26:33.608Z,7.70
2023-05-10T08:29:00.322Z,4.80
2023-05-10T08:31:26.887Z,5.60
2023-05-10T08:33:53.786Z,5.00
2023-05-10T08:36:25.227Z,5.60
2023-05-10T08:38:53.089Z,5.50
2023-05-10T08:41:25.557Z,7.90
2023-05-10T08:43:56.188Z,5.80
2023-05-10T08:46:24.832Z,2.70
2023-05-10T08:48:53.556Z,3.40
2023-05-10T08:51:26.251Z,3.40
2023-05-10T08:53:53.407Z,5.70
2023-05-10T08:56:21.850Z,5.80
2023-05-10T08:58:48.548Z,3.50
2023-05-10T09:01:17.295Z,6.20
2023-05-10T09:03:44.753Z,3.40
2023-05-10T09:06:14.292Z,3.80
2023-05-10T09:08:43.839Z,5.90
2023-05-10T09:13:40.423Z,8.90
2023-05-10T09:18:48.273Z,4.30
2023-05-10T09:21:14.869Z,5.20
2023-05-10T09:23:48.221Z,2.50
2023-05-10T09:26:15.677Z,3.60
2023-05-10T09:28:52.800Z,4.10
2023-05-10T09:31:19.737Z,4.90
2023-05-10T09:33:48.142Z,5.30
2023-05-10T09:36:15.684Z,6.20
2023-05-10T09:38:54.594Z,8.80
2023-05-10T09:41:23.548Z,5.80
2023-05-10T09:43:50.761Z,5.40
2023-05-10T09:46:17.718Z,6.50
2023-05-10T09:48:48.744Z,4.80
2023-05-10T09:51:23.041Z,8.20
2023-05-10T09:53:51.644Z,4.10
2023-05-10T09:56:36.512Z,11.00
2023-05-10T09:59:04.209Z,14.60
2023-05-10T10:01:31.420Z,8.70
2023-05-10T10:03:59.253Z,8.80
2023-05-10T10:06:30.027Z,6.30
2023-05-10T10:08:57.766Z,10.10
2023-05-10T10:11:25.157Z,8.70
2023-05-10T10:13:51.937Z,6.60
2023-05-10T10:16:19.117Z,5.30
2023-05-10T10:18:45.886Z,4.10
2023-05-10T10:21:15.694Z,8.90
2023-05-10T10:23:46.332Z,6.80
2023-05-10T10:26:14.464Z,7.80
2023-05-10T10:28:58.614Z,5.80
2023-05-10T10:31:43.904Z,10.20
2023-05-10T10:34:32.734Z,6.30
2023-05-10T10:37:07.780Z,2.80
2023-05-10T10:39:37.663Z,10.80
2023-05-10T10:42:05.930Z,3.90
2023-05-10T10:44:35.395Z,3.60
2023-05-10T10:50:14.422Z,3.60
2023-05-10T10:52:42.183Z,5.70
2023-05-10T10:55:13.577Z,6.50
2023-05-10T10:58:01.086Z,4.70
2023-05-10T11:00:34.722Z,3.00
2023-05-10T11:03:10.436Z,4.80
2023-05-10T11:05:46.910Z,6.00
2023-05-10T11:08:35.131Z,5.10
2023-05-10T11:11:08.902Z,4.70
2023-05-10T11:13:39.813Z,6.60
2023-05-10T11:16:26.476Z,3.20
2023-05-10T11:19:04.533Z,5.60
2023-05-10T11:21:32.535Z,3.90
2023-05-10T11:24:01.177Z,7.10
2023-05-10T11:26:36.106Z,4.90
2023-05-10T11:29:06.609Z,4.30
2023-05-10T11:31:34.231Z,2.10
2023-05-10T11:34:05.909Z,3.80
2023-05-10T11:36:38.044Z,3.00
2023-05-10T11:39:06.101Z,4.30
2023-05-10T11:41:33.664Z,3.90
2023-05-10T11:44:01.123Z,6.70
2023-05-10T11:46:29.888Z,3.10
2023-05-10T11:49:03.046Z,3.10
2023-05-10T11:51:29.938Z,4.10
2023-05-10T11:53:58.868Z,4.60
2023-05-10T11:56:28.899Z,2.60
2023-05-10T11:58:58.249Z,7.60
2023-05-10T12:01:27.782Z,2.10
2023-05-10T12:03:56.074Z,3.10
2023-05-10T12:06:23.177Z,5.70
2023-05-10T12:08:56.554Z,4.30
2023-05-10T12:11:26.861Z,2.80
2023-05-10T12:13:54.159Z,5.30
2023-05-10T12:16:26.812Z,4.60
2023-05-10T12:18:57.583Z,5.10
2023-05-10T12:21:25.083Z,7.50
2023-05-10T12:23:53.442Z,3.00
2023-05-10T12:26:25.959Z,2.90
2023-05-10T12:28:54.073Z,4.20
2023-05-10T12:31:21.809Z,2.30
2023-05-10T12:33:50.513Z,10.30
2023-05-10T12:36:17.783Z,17.40
2023-05-10T12:38:49.032Z,5.10
2023-05-10T12:41:17.713Z,6.10
2023-05-10T12:43:46.541Z,5.60
2023-05-10T12:46:15.455Z,5.90
2023-05-10T12:48:44.220Z,3.60
2023-05-10T12:51:13.303Z,4.30
2023-05-10T12:53:43.425Z,3.40
2023-05-10T12:56:11.521Z,4.90
2023-05-10T12:58:39.115Z,5.70
2023-05-10T13:01:06.669Z,8.70
2023-05-10T13:03:33.474Z,3.80
2023-05-10T13:06:00.237Z,2.80
2023-05-10T13:08:27.043Z,8.10
2023-05-10T13:10:54.222Z,4.30
2023-05-10T13:13:21.138Z,3.40
2023-05-10T13:15:47.844Z,3.70
2023-05-10T13:18:14.584Z,2.30
2023-05-10T13:20:41.728Z,5.00
2023-05-10T13:23:08.410Z,3.90
2023-05-10T13:25:35.446Z,6.20
2023-05-10T13:28:03.160Z,4.20
2023-05-10T13:30:29.927Z,5.00
2023-05-10T13:32:56.673Z,5.50
2023-05-10T13:35:23.546Z,4.90
2023-05-10T13:37:50.286Z,3.80
2023-05-10T13:40:18.197Z,9.80
2023-05-10T13:42:45.112Z,5.90
2023-05-10T13:45:14.271Z,4.20
2023-05-10T13:47:41.283Z,5.00
2023-05-10T13:50:08.903Z,8.50
2023-05-10T13:52:36.393Z,3.10
2023-05-10T13:55:03.856Z,8.60
2023-05-10T13:57:31.490Z,4.80
2023-05-10T13:59:58.944Z,5.60
2023-05-10T14:02:26.449Z,8.10
2023-05-10T14:04:53.407Z,3.10
2023-05-10T14:07:20.493Z,3.40
2023-05-10T14:09:47.630Z,5.40
2023-05-10T14:12:15.701Z,7.70
2023-05-10T14:14:42.586Z,9.20
2023-05-10T14:17:12.010Z,4.00
2023-05-10T14:19:39.996Z,6.00
2023-05-10T14:22:07.172Z,3.60
2023-05-10T14:24:34.022Z,6.20
2023-05-10T14:27:01.383Z,7.50
2023-05-10T14:29:28.527Z,6.50
2023-05-10T14:31:55.543Z,10.10
2023-05-10T14:34:22.575Z,3.00
2023-05-10T14:36:49.700Z,5.40
2023-05-10T14:39:16.775Z,5.80
2023-05-10T14:41:45.626Z,4.90
2023-05-10T14:44:12.598Z,3.30
2023-05-10T14:46:40.460Z,3.60
2023-05-10T14:49:07.502Z,4.80
2023-05-10T14:51:34.322Z,4.20
2023-05-10T14:54:01.825Z,2.70
2023-05-10T14:56:29.000Z,3.50
2023-05-10T14:58:56.764Z,13.20
2023-05-10T15:01:24.658Z,7.60
2023-05-10T15:03:52.135Z,5.60
2023-05-10T15:06:26.410Z,2.90
2023-05-10T15:08:53.778Z,5.20
2023-05-10T15:11:21.682Z,4.40
2023-05-10T15:13:48.837Z,3.70
2023-05-10T15:16:15.886Z,4.50
2023-05-10T15:18:42.834Z,3.00
2023-05-10T15:21:11.178Z,5.00
2023-05-10T15:23:38.956Z,6.20
2023-05-10T15:26:06.435Z,3.30
2023-05-10T15:28:34.562Z,3.90
2023-05-10T15:31:02.017Z,4.10
2023-05-10T15:33:30.296Z,5.80
2023-05-10T15:35:57.295Z,4.70
2023-05-10T15:38:25.807Z,5.10
2023-05-10T15:40:58.086Z,5.60
2023-05-10T15:43:25.708Z,25.70
2023-05-10T15:45:53.306Z,4.30
2023-05-10T15:48:20.861Z,4.80
2023-05-10T15:50:48.126Z,3.60
2023-05-10T15:53:17.889Z,4.00
2023-05-10T15:58:12.743Z,4.40
2023-05-10T16:00:40.508Z,5.20
2023-05-10T16:03:09.085Z,5.60
2023-05-10T16:05:39.983Z,9.30
2023-05-10T16:08:07.534Z,5.10
2023-05-10T16:10:34.689Z,3.80
2023-05-10T16:13:04.394Z,3.20
2023-05-10T16:15:32.082Z,4.10
2023-05-10T16:18:02.953Z,3.60
2023-05-10T16:20:30.201Z,4.70
2023-05-10T16:22:57.473Z,7.70
2023-05-10T16:25:24.253Z,2.60
2023-05-10T16:27:51.647Z,6.00
2023-05-10T16:30:21.302Z,5.10
2023-05-10T16:32:51.284Z,4.70
2023-05-10T16:35:19.154Z,3.80
2023-05-10T16:37:46.539Z,3.60
2023-05-10T16:40:14.311Z,7.50
2023-05-10T16:42:42.115Z,5.40
2023-05-10T16:45:09.858Z,7.50
2023-05-10T16:47:38.217Z,6.20
2023-05-10T16:50:07.645Z,6.80
2023-05-10T16:52:35.580Z,5.10
2023-05-10T16:55:03.318Z,4.30
2023-05-10T16:57:30.873Z,6.00
2023-05-10T16:59:57.605Z,4.60
2023-05-10T17:02:24.416Z,4.90
2023-05-10T17:04:53.172Z,5.10
2023-05-10T17:07:19.821Z,3.90
2023-05-10T17:09:46.788Z,8.50
2023-05-10T17:12:13.457Z,5.20
2023-05-10T17:14:40.163Z,7.00
2023-05-10T17:17:07.052Z,3.30
2023-05-10T17:19:33.864Z,6.60
2023-05-10T17:22:00.766Z,7.10
2023-05-10T17:24:29.714Z,5.80
2023-05-10T17:26:57.444Z,7.00
2023-05-10T17:29:24.346Z,7.10
2023-05-10T17:31:51.103Z,7.70
2023-05-10T17:34:18.512Z,5.30
2023-05-10T17:36:47.036Z,5.30
2023-05-10T17:39:16.528Z,4.80
2023-05-10T17:41:43.948Z,4.80
2023-05-10T17:44:13.455Z,8.30
2023-05-10T17:46:40.419Z,9.50
2023-05-10T17:49:08.243Z,13.00
2023-05-10T17:51:35.883Z,23.40
2023-05-10T17:54:03.682Z,17.60
2023-05-10T17:56:33.153Z,16.90
2023-05-10T17:59:00.500Z,20.70
2023-05-10T18:01:27.965Z,25.90
2023-05-10T18:03:59.467Z,24.00
2023-05-10T18:06:27.074Z,27.20
2023-05-10T18:08:54.575Z,26.90
2023-05-10T18:11:22.493Z,27.50
2023-05-10T18:13:51.412Z,34.50
2023-05-10T18:16:18.704Z,30.60
2023-05-10T18:18:45.396Z,37.40
2023-05-10T18:21:12.589Z,26.30
2023-05-10T18:23:39.584Z,24.20
2023-05-10T18:26:08.477Z,16.60
2023-05-10T18:28:35.978Z,13.70
2023-05-10T18:31:03.512Z,19.20
2023-05-10T18:33:30.846Z,15.80
2023-05-10T18:35:57.988Z,19.20
2023-05-10T18:38:24.757Z,21.00
2023-05-10T18:40:51.787Z,22.40
2023-05-10T18:43:18.739Z,18.30
2023-05-10T18:45:45.588Z,19.30
2023-05-10T18:48:12.361Z,18.30
2023-05-10T18:50:39.456Z,19.30
2023-05-10T18:53:06.136Z,18.90
2023-05-10T18:55:32.861Z,14.20
2023-05-10T18:57:59.489Z,15.20
2023-05-10T19:00:26.376Z,21.30
2023-05-10T19:02:53.689Z,42.50
2023-05-10T19:05:20.683Z,40.60
2023-05-10T19:07:47.716Z,27.10
2023-05-10T19:10:15.213Z,30.80
2023-05-10T19:12:41.959Z,25.60
2023-05-10T19:15:09.770Z,27.40
2023-05-10T19:17:38.873Z,21.80
2023-05-10T19:20:07.976Z,17.20
2023-05-10T19:22:47.101Z,21.00
2023-05-10T19:25:21.899Z,19.60
2023-05-10T19:27:48.705Z,16.60
2023-05-10T19:30:15.542Z,19.00
2023-05-10T19:32:44.484Z,26.00
2023-05-10T19:35:13.730Z,22.90
2023-05-10T19:37:45.910Z,26.80
2023-05-10T19:40:16.034Z,24.70
2023-05-10T19:42:42.933Z,23.00
2023-05-10T19:45:10.498Z,22.60
2023-05-10T19:47:37.389Z,26.80
2023-05-10T19:50:04.558Z,24.00
2023-05-10T19:52:31.184Z,25.90
2023-05-10T19:54:57.862Z,24.90
2023-05-10T19:57:24.584Z,25.70
2023-05-10T19:59:51.144Z,27.00
2023-05-10T20:02:17.719Z,24.90
2023-05-10T20:04:45.020Z,23.40
2023-05-10T20:07:12.401Z,23.20
2023-05-10T20:09:39.598Z,18.90
2023-05-10T20:12:06.476Z,19.20
2023-05-10T20:14:33.321Z,24.90
2023-05-10T20:17:00.047Z,15.10
2023-05-10T20:19:26.838Z,18.10
2023-05-10T20:21:56.108Z,20.10
2023-05-10T20:24:23.460Z,21.10
2023-05-10T20:26:50.355Z,15.10
2023-05-10T20:29:17.180Z,17.20
2023-05-10T20:31:43.927Z,15.60
2023-05-10T20:34:10.929Z,14.80
2023-05-10T20:36:38.355Z,14.60
2023-05-10T20:39:05.467Z,13.30
2023-05-10T20:41:32.204Z,9.40
2023-05-10T20:44:00.687Z,13.70
2023-05-10T20:46:27.928Z,10.50
2023-05-10T20:48:54.798Z,8.30
2023-05-10T20:51:21.689Z,8.00
2023-05-10T20:53:48.313Z,10.80
2023-05-10T20:56:15.114Z,13.40
2023-05-10T20:58:41.831Z,10.30
2023-05-10T21:01:08.656Z,8.10
2023-05-10T21:03:35.831Z,9.40
2023-05-10T21:06:02.516Z,8.90
2023-05-10T21:08:29.196Z,10.90
2023-05-10T21:10:56.286Z,6.80
2023-05-10T21:13:23.184Z,6.80
2023-05-10T21:15:50.026Z,11.00
2023-05-10T21:18:16.815Z,10.70
2023-05-10T21:20:43.475Z,9.40
2023-05-10T21:23:09.984Z,9.40
2023-05-10T21:25:37.578Z,10.30
2023-05-10T21:28:04.250Z,7.30
2023-05-10T21:30:30.892Z,8.20
2023-05-10T21:32:59.859Z,12.00
2023-05-10T21:35:26.780Z,9.20
2023-05-10T21:37:53.342Z,8.20
2023-05-10T21:40:20.316Z,9.80
2023-05-10T21:42:49.467Z,7.30
2023-05-10T21:45:17.174Z,9.20
2023-05-10T21:47:44.137Z,9.60
2023-05-10T21:50:11.920Z,8.60
2023-05-10T21:52:39.153Z,9.40
2023-05-10T21:55:06.608Z,8.80
2023-05-10T21:57:33.169Z,9.90
2023-05-10T21:59:59.797Z,8.70
2023-05-10T22:02:26.574Z,7.30
2023-05-10T22:04:53.264Z,8.00
2023-05-10T22:07:19.895Z,9.30
2023-05-10T22:09:46.510Z,9.20
2023-05-10T22:12:13.216Z,8.90
2023-05-10T22:14:39.776Z,9.40
2023-05-10T22:17:06.408Z,7.20
2023-05-10T22:19:33.009Z,9.70
2023-05-10T22:21:59.535Z,9.70
2023-05-10T22:24:26.333Z,9.70
2023-05-10T22:26:56.160Z,10.70
2023-05-10T22:29:24.114Z,10.70
2023-05-10T22:31:50.790Z,13.40
2023-05-10T22:34:18.721Z,7.50
2023-05-10T22:36:45.478Z,6.80
2023-05-10T22:39:12.232Z,10.30
2023-05-10T22:41:38.760Z,7.80
2023-05-10T22:44:05.360Z,10.40
2023-05-10T22:46:32.996Z,7.50
2023-05-10T22:48:59.745Z,9.20
2023-05-10T22:51:26.543Z,8.70
2023-05-10T22:53:53.016Z,7.60
2023-05-10T22:56:21.853Z,8.00
2023-05-10T22:58:49.442Z,7.70
2023-05-10T23:01:16.124Z,7.90
2023-05-10T23:03:42.789Z,6.00
2023-05-10T23:06:09.345Z,8.90
2023-05-10T23:08:35.830Z,11.30
2023-05-10T23:11:02.460Z,7.50
2023-05-10T23:13:29.016Z,8.30
2023-05-10T23:15:55.618Z,7.60
2023-05-10T23:18:22.287Z,7.70
2023-05-10T23:20:48.889Z,11.90
2023-05-10T23:23:15.802Z,9.50
2023-05-10T23:25:42.305Z,7.20
2023-05-10T23:28:08.845Z,11.00
2023-05-10T23:30:35.675Z,9.10
2023-05-10T23:33:02.266Z,14.70
2023-05-10T23:35:28.916Z,11.40
2023-05-10T23:37:55.658Z,9.40
2023-05-10T23:40:22.582Z,9.40
2023-05-10T23:42:49.149Z,5.70
2023-05-10T23:45:16.111Z,5.50
2023-05-10T23:47:42.701Z,8.00
2023-05-10T23:50:10.091Z,11.80
2023-05-10T23:52:36.650Z,7.90
2023-05-10T23:55:03.614Z,10.00
2023-05-10T23:57:30.218Z,7.40
2023-05-10T23:59:56.712Z,7.20
